Time;durP1;ratioP1;P1;durP2;ratioP2;P2;SDS_P1;SDS_P2;PMS_P1;PMS_P2;Temp;Humidity;BMP_temperature;BMP_pressure;BME280_temperature;BME280_humidity;BME280_pressure;Samples;Min_cycle;Max_cycle;Signal;HPM_P1;HPM_P2
2023/08/22 00:00:29;;;;;;;3.35;2.40;;;19.60;99.90;;;;;;5063263;28;20057;-34
2023/08/22 00:02:55;;;;;;;3.38;2.20;;;19.50;99.90;;;;;;5048962;28;20640;-34
2023/08/22 00:05:22;;;;;;;3.97;2.45;;;19.60;99.90;;;;;;5042627;28;20041;-34
2023/08/22 00:07:48;;;;;;;5.28;2.35;;;19.50;99.90;;;;;;5063273;28;20040;-34
2023/08/22 00:10:14;;;;;;;5.15;2.60;;;19.40;99.90;;;;;;5063479;28;20052;-34
2023/08/22 00:12:40;;;;;;;3.60;2.40;;;19.40;99.90;;;;;;5063692;28;20048;-43
2023/08/22 00:15:10;;;;;;;4.30;2.30;;;19.40;99.90;;;;;;5064581;28;20067;-34
2023/08/22 00:17:42;;;;;;;5.28;3.00;;;19.40;99.90;;;;;;5052750;28;20055;-34
2023/08/22 00:20:11;;;;;;;4.97;3.15;;;19.30;99.90;;;;;;5063474;28;20044;-34
2023/08/22 00:22:37;;;;;;;6.30;3.20;;;19.30;99.90;;;;;;5066375;28;20052;-34
2023/08/22 00:25:06;;;;;;;5.78;3.42;;;19.20;99.90;;;;;;5064260;28;20044;-34
2023/08/22 00:27:33;;;;;;;4.95;3.28;;;19.10;99.90;;;;;;5050925;28;20566;-34
2023/08/22 00:29:59;;;;;;;5.97;3.40;;;19.20;99.90;;;;;;5060334;28;20104;-34
2023/08/22 00:32:25;;;;;;;4.72;3.50;;;19.10;99.90;;;;;;5045951;28;20484;-34
2023/08/22 00:34:51;;;;;;;7.95;4.18;;;19.00;99.90;;;;;;5050352;28;20044;-34
2023/08/22 00:37:18;;;;;;;7.88;3.88;;;18.90;99.90;;;;;;5062952;28;20453;-34
2023/08/22 00:39:44;;;;;;;6.85;3.70;;;18.90;99.90;;;;;;5062037;28;20058;-34
2023/08/22 00:42:10;;;;;;;8.15;3.05;;;18.80;99.90;;;;;;5063751;28;20048;-34
2023/08/22 00:44:35;;;;;;;8.50;3.80;;;18.80;99.90;;;;;;5059514;28;20744;-34
2023/08/22 00:47:02;;;;;;;7.50;3.83;;;18.80;99.90;;;;;;5065228;28;20091;-34
2023/08/22 00:49:28;;;;;;;5.40;3.97;;;18.80;99.90;;;;;;5062571;28;20056;-34
2023/08/22 00:51:55;;;;;;;4.90;3.75;;;18.80;99.90;;;;;;5056786;28;20049;-34
2023/08/22 00:54:21;;;;;;;8.52;3.95;;;18.80;99.90;;;;;;5059692;28;20052;-34
2023/08/22 00:56:47;;;;;;;7.57;3.58;;;18.80;99.90;;;;;;5063973;28;20093;-34
2023/08/22 00:59:13;;;;;;;5.85;4.00;;;18.80;99.90;;;;;;5057709;28;20060;-34
2023/08/22 01:01:39;;;;;;;6.88;4.05;;;18.70;99.90;;;;;;5061920;28;20402;-34
2023/08/22 01:04:04;;;;;;;6.18;4.13;;;18.70;99.90;;;;;;5057492;28;20171;-34
2023/08/22 01:06:40;;;;;;;5.38;4.18;;;18.70;99.90;;;;;;5058896;28;20105;-34
2023/08/22 01:09:16;;;;;;;5.60;4.13;;;18.80;99.90;;;;;;5055984;28;20067;-34
2023/08/22 01:11:47;;;;;;;7.13;4.18;;;18.80;99.90;;;;;;5063346;28;20067;-33
2023/08/22 01:14:17;;;;;;;6.32;4.50;;;18.70;99.90;;;;;;5060530;28;20052;-34
2023/08/22 01:16:44;;;;;;;8.10;4.53;;;18.70;99.90;;;;;;5063858;28;20067;-34
2023/08/22 01:19:13;;;;;;;10.20;4.65;;;18.70;99.90;;;;;;5053941;28;20206;-34
2023/08/22 01:21:52;;;;;;;6.60;3.92;;;18.70;99.90;;;;;;5052166;28;20060;-34
2023/08/22 01:24:18;;;;;;;5.45;4.53;;;18.70;99.90;;;;;;5061087;28;20082;-33
2023/08/22 01:26:45;;;;;;;7.65;5.38;;;18.70;99.90;;;;;;5062083;28;20088;-34
2023/08/22 01:29:20;;;;;;;6.93;5.45;;;18.70;99.90;;;;;;5062110;28;20426;-34
2023/08/22 01:31:56;;;;;;;7.82;4.93;;;18.70;99.90;;;;;;5060700;28;20530;-34
2023/08/22 01:34:31;;;;;;;7.82;4.75;;;18.70;99.90;;;;;;5049731;28;20060;-34
2023/08/22 01:36:59;;;;;;;8.05;4.57;;;18.70;99.90;;;;;;5059631;28;20450;-34
2023/08/22 01:39:29;;;;;;;6.47;4.85;;;18.70;99.90;;;;;;5059976;28;20075;-34
2023/08/22 01:41:56;;;;;;;7.22;4.70;;;18.60;99.90;;;;;;5061462;28;20521;-34
2023/08/22 01:44:23;;;;;;;6.45;4.93;;;18.60;99.90;;;;;;5063924;28;20056;-34
2023/08/22 01:46:52;;;;;;;7.32;4.30;;;18.70;99.90;;;;;;5076747;28;20048;-34
2023/08/22 01:49:17;;;;;;;7.05;4.53;;;18.60;99.90;;;;;;5060447;28;20120;-34
2023/08/22 01:51:43;;;;;;;6.53;5.13;;;18.60;99.90;;;;;;5062158;28;20060;-34
2023/08/22 01:54:09;;;;;;;9.90;5.07;;;18.50;99.90;;;;;;5062487;28;20098;-34
2023/08/22 01:56:34;;;;;;;8.80;5.15;;;18.50;99.90;;;;;;5060527;28;20079;-34
2023/08/22 01:59:00;;;;;;;5.90;3.78;;;18.50;99.90;;;;;;5059107;28;20114;-34
2023/08/22 02:01:26;;;;;;;7.90;4.80;;;18.50;99.90;;;;;;5062454;28;20067;-34
2023/08/22 02:03:51;;;;;;;6.60;4.25;;;18.40;99.90;;;;;;5062473;28;20083;-34
2023/08/22 02:06:17;;;;;;;6.50;4.53;;;18.40;99.90;;;;;;5061475;28;20049;-33
2023/08/22 02:08:42;;;;;;;7.95;5.07;;;18.30;99.90;;;;;;5064980;28;20383;-34
2023/08/22 02:11:08;;;;;;;5.85;4.50;;;18.30;99.90;;;;;;5061902;28;20493;-34
2023/08/22 02:13:34;;;;;;;5.38;4.22;;;18.20;99.90;;;;;;5058734;28;20056;-34
2023/08/22 02:16:00;;;;;;;7.28;4.65;;;18.20;99.90;;;;;;5066005;28;20051;-34
2023/08/22 02:18:26;;;;;;;8.23;5.20;;;18.20;99.90;;;;;;5061000;28;20502;-34
2023/08/22 02:20:54;;;;;;;6.65;4.80;;;18.20;99.90;;;;;;5047853;28;20045;-34
2023/08/22 02:23:20;;;;;;;6.47;4.70;;;18.20;99.90;;;;;;5056828;28;20053;-34
2023/08/22 02:25:49;;;;;;;7.43;4.50;;;18.20;99.90;;;;;;5057463;28;20434;-37
2023/08/22 02:28:14;;;;;;;6.40;4.82;;;18.20;99.90;;;;;;5056786;28;20075;-34
2023/08/22 02:30:40;;;;;;;6.72;5.13;;;18.20;99.90;;;;;;5062425;28;20053;-34
2023/08/22 02:33:06;;;;;;;5.93;4.22;;;18.20;99.90;;;;;;5065800;28;20417;-34
2023/08/22 02:35:32;;;;;;;9.18;5.68;;;18.10;99.90;;;;;;5061126;28;20075;-34
2023/08/22 02:37:58;;;;;;;6.65;4.53;;;18.10;99.90;;;;;;5068617;28;20123;-34
2023/08/22 02:40:23;;;;;;;7.28;4.45;;;18.10;99.90;;;;;;5063841;28;20036;-33
2023/08/22 02:42:49;;;;;;;11.00;4.63;;;18.10;99.90;;;;;;5065402;28;20135;-34
2023/08/22 02:45:15;;;;;;;6.35;4.40;;;18.10;99.90;;;;;;5067387;28;20484;-34
2023/08/22 02:47:41;;;;;;;6.55;4.40;;;18.10;99.90;;;;;;5065700;28;20064;-34
2023/08/22 02:50:08;;;;;;;7.55;4.60;;;18.10;99.90;;;;;;5064164;28;20047;-34
2023/08/22 02:52:33;;;;;;;8.80;4.88;;;18.10;99.90;;;;;;5062547;28;20047;-33
2023/08/22 02:54:59;;;;;;;6.72;4.53;;;18.10;99.90;;;;;;5065626;28;20052;-34
2023/08/22 02:57:25;;;;;;;7.53;4.40;;;18.00;99.90;;;;;;5065374;28;20052;-34
2023/08/22 02:59:51;;;;;;;6.97;4.65;;;18.00;99.90;;;;;;5064526;28;20052;-34
2023/08/22 03:02:16;;;;;;;5.45;4.10;;;17.90;99.90;;;;;;5064038;28;20055;-36
2023/08/22 03:04:44;;;;;;;6.43;4.05;;;17.90;99.90;;;;;;5063213;28;20093;-34
2023/08/22 03:07:09;;;;;;;6.68;4.30;;;17.90;99.90;;;;;;5065703;28;20417;-34
2023/08/22 03:09:37;;;;;;;7.07;3.70;;;17.90;99.90;;;;;;5063303;28;20048;-34
2023/08/22 03:12:03;;;;;;;5.47;4.13;;;17.90;99.90;;;;;;5065605;28;20072;-34
2023/08/22 03:14:28;;;;;;;7.00;4.78;;;17.90;99.90;;;;;;5064930;28;20445;-34
2023/08/22 03:16:54;;;;;;;5.60;4.07;;;17.90;99.90;;;;;;5042196;28;20049;-34
2023/08/22 03:19:20;;;;;;;7.25;5.10;;;17.90;99.90;;;;;;5045138;28;20461;-34
2023/08/22 03:21:45;;;;;;;5.70;4.40;;;17.90;99.90;;;;;;5044549;28;20057;-34
2023/08/22 03:24:11;;;;;;;6.53;4.43;;;17.90;99.90;;;;;;5063463;28;20079;-34
2023/08/22 03:26:37;;;;;;;5.88;4.28;;;17.90;99.90;;;;;;5060414;28;20101;-33
2023/08/22 03:29:02;;;;;;;5.95;4.63;;;17.80;99.90;;;;;;5065143;28;20101;-34
2023/08/22 03:31:28;;;;;;;8.98;4.32;;;17.80;99.90;;;;;;5061982;28;20531;-34
2023/08/22 03:33:54;;;;;;;6.47;4.57;;;17.80;99.90;;;;;;5058471;28;20056;-34
2023/08/22 03:36:20;;;;;;;5.63;4.05;;;17.80;99.90;;;;;;5062753;28;20063;-33
2023/08/22 03:38:48;;;;;;;6.65;4.50;;;17.80;99.90;;;;;;5052308;28;20052;-33
2023/08/22 03:41:13;;;;;;;7.80;3.95;;;17.80;99.90;;;;;;5060149;28;20049;-34
2023/08/22 03:43:39;;;;;;;5.88;4.18;;;17.80;99.90;;;;;;5052821;28;20055;-33
2023/08/22 03:46:05;;;;;;;6.60;4.30;;;17.80;99.90;;;;;;5060472;28;20115;-34
2023/08/22 03:48:30;;;;;;;7.22;3.65;;;17.70;99.90;;;;;;5062304;28;20048;-34
2023/08/22 03:50:56;;;;;;;4.82;3.70;;;17.70;99.90;;;;;;5054498;28;20048;-33
2023/08/22 03:53:22;;;;;;;5.78;4.20;;;17.70;99.90;;;;;;5065261;28;20545;-33
2023/08/22 03:55:48;;;;;;;5.55;4.18;;;17.70;99.90;;;;;;5063800;28;20052;-34
2023/08/22 03:58:14;;;;;;;5.28;4.00;;;17.70;99.90;;;;;;5063179;28;20131;-33
2023/08/22 04:00:40;;;;;;;7.25;3.88;;;17.70;99.90;;;;;;5061410;28;20045;-33
2023/08/22 04:03:05;;;;;;;7.07;3.80;;;17.70;99.90;;;;;;5056297;28;20576;-33
2023/08/22 04:05:31;;;;;;;5.18;3.83;;;17.70;99.90;;;;;;5064297;28;20048;-33
2023/08/22 04:07:57;;;;;;;6.75;4.65;;;17.60;99.90;;;;;;5066819;28;20094;-33
2023/08/22 04:10:23;;;;;;;9.20;5.93;;;17.60;99.90;;;;;;5044442;28;20053;-33
2023/08/22 04:12:48;;;;;;;8.05;4.75;;;17.60;99.90;;;;;;5063397;28;20151;-33
2023/08/22 04:15:15;;;;;;;6.85;5.07;;;17.60;99.90;;;;;;5055507;28;20037;-33
2023/08/22 04:17:41;;;;;;;6.88;4.32;;;17.50;99.90;;;;;;5055142;28;20053;-33
2023/08/22 04:20:11;;;;;;;6.50;4.60;;;17.50;99.90;;;;;;5064783;28;20490;-33
2023/08/22 04:22:40;;;;;;;7.30;4.15;;;17.50;99.90;;;;;;5061727;28;20048;-33
2023/08/22 04:25:06;;;;;;;8.48;4.63;;;17.50;99.90;;;;;;5059277;28;20055;-33
2023/08/22 04:27:31;;;;;;;6.70;4.70;;;17.50;99.90;;;;;;5063086;28;20044;-33
2023/08/22 04:29:58;;;;;;;5.78;4.68;;;17.40;99.90;;;;;;5060162;28;20048;-33
2023/08/22 04:32:23;;;;;;;5.32;4.18;;;17.40;99.90;;;;;;5060156;28;20052;-33
2023/08/22 04:34:49;;;;;;;6.65;3.50;;;17.40;99.90;;;;;;5061290;28;20056;-33
2023/08/22 04:37:15;;;;;;;6.18;4.30;;;17.40;99.90;;;;;;5066719;28;20052;-34
2023/08/22 04:39:40;;;;;;;6.93;4.35;;;17.30;99.90;;;;;;5062937;28;20445;-34
2023/08/22 04:42:06;;;;;;;6.95;4.70;;;17.30;99.90;;;;;;5058835;28;20080;-33
2023/08/22 04:44:31;;;;;;;5.30;3.42;;;17.30;99.90;;;;;;5046794;28;20072;-33
2023/08/22 04:46:57;;;;;;;4.88;3.42;;;17.30;99.90;;;;;;5062554;28;20056;-34
2023/08/22 04:49:24;;;;;;;6.07;3.67;;;17.30;99.90;;;;;;5061053;28;20548;-33
2023/08/22 04:51:49;;;;;;;6.07;3.67;;;17.30;99.90;;;;;;5062668;28;20055;-33
2023/08/22 04:54:15;;;;;;;6.05;4.20;;;17.30;99.90;;;;;;5061954;28;20742;-33
2023/08/22 04:56:41;;;;;;;6.90;3.92;;;17.40;99.90;;;;;;5062659;28;20047;-33
2023/08/22 04:59:06;;;;;;;4.78;3.55;;;17.30;99.90;;;;;;5062034;28;20466;-33
2023/08/22 05:01:32;;;;;;;9.88;4.32;;;17.40;99.90;;;;;;5063617;28;20040;-33
2023/08/22 05:03:58;;;;;;;4.90;3.80;;;17.40;99.90;;;;;;5061783;28;20088;-33
2023/08/22 05:06:23;;;;;;;5.00;3.28;;;17.40;99.90;;;;;;5057905;28;20044;-33
2023/08/22 05:08:49;;;;;;;6.07;3.70;;;17.40;99.90;;;;;;5059440;28;20139;-34
2023/08/22 05:11:15;;;;;;;4.85;3.45;;;17.50;99.90;;;;;;5060578;28;20491;-33
2023/08/22 05:13:40;;;;;;;5.78;3.65;;;17.50;99.90;;;;;;5062688;28;20053;-33
2023/08/22 05:16:06;;;;;;;7.55;4.70;;;17.50;99.90;;;;;;5044651;28;20132;-33
2023/08/22 05:18:32;;;;;;;6.93;4.30;;;17.50;99.90;;;;;;5059288;28;20083;-33
2023/08/22 05:20:58;;;;;;;8.52;4.95;;;17.50;99.90;;;;;;5056603;28;20183;-33
2023/08/22 05:23:23;;;;;;;5.53;4.43;;;17.60;99.90;;;;;;5058635;28;20037;-34
2023/08/22 05:25:51;;;;;;;5.78;4.10;;;17.60;99.90;;;;;;5061312;28;20050;-33
2023/08/22 05:28:17;;;;;;;8.18;3.88;;;17.60;99.90;;;;;;5058518;28;20530;-33
2023/08/22 05:30:43;;;;;;;7.70;5.03;;;17.60;99.90;;;;;;5055998;28;20067;-33
2023/08/22 05:33:09;;;;;;;5.97;4.10;;;17.60;99.90;;;;;;5058527;28;20559;-33
2023/08/22 05:35:35;;;;;;;7.60;4.07;;;17.60;99.90;;;;;;5051370;28;20510;-33
2023/08/22 05:38:00;;;;;;;7.63;4.20;;;17.60;99.90;;;;;;5058295;28;20079;-33
2023/08/22 05:40:26;;;;;;;8.00;3.53;;;17.60;99.90;;;;;;5057319;28;20094;-33
2023/08/22 05:42:52;;;;;;;3.85;2.83;;;17.60;99.90;;;;;;5056826;28;20406;-33
2023/08/22 05:45:18;;;;;;;6.15;3.88;;;17.60;99.90;;;;;;5063379;28;20071;-33
2023/08/22 05:47:44;;;;;;;7.35;3.38;;;17.60;99.90;;;;;;5058743;28;21781;-33
2023/08/22 05:50:10;;;;;;;5.82;3.10;;;17.70;99.90;;;;;;5058279;28;20045;-33
2023/08/22 05:52:36;;;;;;;7.13;3.88;;;17.70;99.90;;;;;;5062847;28;20143;-33
2023/08/22 05:55:03;;;;;;;8.68;4.30;;;17.80;99.90;;;;;;5057592;28;20227;-33
2023/08/22 05:57:29;;;;;;;5.78;3.50;;;17.90;99.90;;;;;;5054034;28;20049;-33
2023/08/22 05:59:55;;;;;;;5.25;3.50;;;18.00;99.90;;;;;;5057768;28;20098;-33
2023/08/22 06:02:20;;;;;;;11.18;4.15;;;18.10;99.90;;;;;;5052887;28;20049;-33
2023/08/22 06:04:46;;;;;;;6.25;4.15;;;18.20;99.90;;;;;;5060093;28;20111;-34
2023/08/22 06:07:12;;;;;;;10.10;4.05;;;18.20;99.90;;;;;;5060223;28;20490;-34
2023/08/22 06:09:37;;;;;;;10.73;3.97;;;18.30;99.90;;;;;;5058305;28;20052;-34
2023/08/22 06:12:03;;;;;;;5.82;3.30;;;18.40;99.90;;;;;;5057846;28;20067;-34
2023/08/22 06:14:29;;;;;;;6.40;3.30;;;18.40;99.90;;;;;;5063225;28;20056;-34
2023/08/22 06:16:57;;;;;;;6.35;3.13;;;18.50;99.90;;;;;;5060627;28;20155;-34
2023/08/22 06:19:23;;;;;;;7.38;3.50;;;18.50;99.90;;;;;;5063503;28;20561;-34
2023/08/22 06:21:48;;;;;;;7.25;3.78;;;18.60;99.90;;;;;;5064034;28;20132;-34
2023/08/22 06:24:14;;;;;;;7.80;3.50;;;18.60;99.90;;;;;;5059054;28;20469;-34
2023/08/22 06:26:41;;;;;;;6.50;2.90;;;18.60;99.90;;;;;;5053712;28;20075;-34
2023/08/22 06:29:06;;;;;;;6.57;3.47;;;18.60;99.90;;;;;;5049858;28;20072;-34
2023/08/22 06:31:32;;;;;;;7.38;2.97;;;18.60;99.90;;;;;;5061547;28;20052;-34
2023/08/22 06:33:58;;;;;;;7.10;4.13;;;18.70;99.90;;;;;;5062936;28;20476;-34
2023/08/22 06:36:23;;;;;;;5.88;3.45;;;18.70;99.90;;;;;;5061680;28;20422;-34
2023/08/22 06:38:51;;;;;;;7.05;3.42;;;18.80;99.90;;;;;;5060359;28;20429;-34
2023/08/22 06:41:18;;;;;;;6.35;3.40;;;18.80;99.90;;;;;;5046686;28;20076;-34
2023/08/22 06:43:44;;;;;;;6.47;3.67;;;18.80;99.90;;;;;;5061433;28;20044;-34
2023/08/22 06:46:09;;;;;;;5.68;3.65;;;18.80;99.90;;;;;;5061673;28;20417;-34
2023/08/22 06:48:35;;;;;;;7.07;3.10;;;18.80;99.90;;;;;;5054295;28;20087;-34
2023/08/22 06:51:01;;;;;;;6.03;3.65;;;18.80;99.90;;;;;;5061490;28;20402;-34
2023/08/22 06:53:26;;;;;;;7.47;3.25;;;18.80;99.90;;;;;;5060693;28;20388;-34
2023/08/22 06:55:54;;;;;;;5.60;3.10;;;18.80;99.90;;;;;;5044835;28;20556;-34
2023/08/22 06:58:20;;;;;;;6.32;3.42;;;18.80;99.90;;;;;;5060876;28;20048;-34
2023/08/22 07:00:45;;;;;;;8.55;3.92;;;18.90;99.90;;;;;;5062068;28;20049;-34
2023/08/22 07:03:11;;;;;;;4.88;3.05;;;19.00;99.90;;;;;;5057447;28;20445;-34
2023/08/22 07:05:37;;;;;;;5.50;3.58;;;19.00;99.90;;;;;;5062215;28;20052;-34
2023/08/22 07:08:03;;;;;;;7.53;3.75;;;19.10;99.90;;;;;;5059203;28;20103;-34
2023/08/22 07:10:29;;;;;;;8.55;3.55;;;19.10;99.90;;;;;;5053969;28;20060;-34
2023/08/22 07:12:54;;;;;;;8.85;3.78;;;19.20;99.90;;;;;;5051244;28;20045;-34
2023/08/22 07:15:20;;;;;;;8.70;3.58;;;19.30;99.90;;;;;;5064948;28;20506;-34
2023/08/22 07:17:46;;;;;;;7.63;3.90;;;19.30;99.90;;;;;;5061963;28;20040;-34
2023/08/22 07:20:13;;;;;;;4.60;2.83;;;19.40;99.90;;;;;;5064107;28;20476;-34
2023/08/22 07:22:38;;;;;;;7.68;3.83;;;19.50;99.90;;;;;;5052595;28;20409;-34
2023/08/22 07:25:05;;;;;;;5.70;3.22;;;19.50;99.90;;;;;;5064717;28;20044;-34
2023/08/22 07:27:30;;;;;;;9.45;3.40;;;19.60;99.90;;;;;;5061976;28;20143;-34
2023/08/22 07:29:56;;;;;;;6.38;2.83;;;19.70;99.90;;;;;;5066804;28;20048;-34
2023/08/22 07:32:22;;;;;;;3.88;2.35;;;19.80;99.90;;;;;;5067122;28;20044;-34
2023/08/22 07:34:48;;;;;;;3.70;2.15;;;19.90;99.90;;;;;;5061460;28;20053;-34
2023/08/22 07:37:15;;;;;;;5.00;2.35;;;20.00;99.90;;;;;;5050974;28;20065;-34
2023/08/22 07:39:41;;;;;;;6.55;2.60;;;20.20;99.90;;;;;;5054120;28;20057;-34
2023/08/22 07:42:07;;;;;;;6.25;2.28;;;20.20;99.90;;;;;;5065652;28;20044;-34
2023/08/22 07:44:33;;;;;;;5.10;1.98;;;20.30;99.90;;;;;;5063868;28;20461;-34
2023/08/22 07:46:59;;;;;;;3.72;2.10;;;20.30;99.90;;;;;;5054329;28;20078;-34
2023/08/22 07:49:25;;;;;;;4.65;1.98;;;20.40;99.90;;;;;;5058937;28;20446;-35
2023/08/22 07:51:51;;;;;;;3.08;1.60;;;20.50;99.90;;;;;;5055913;28;20536;-34
2023/08/22 07:54:19;;;;;;;2.88;1.30;;;20.50;99.90;;;;;;5061920;28;20061;-34
2023/08/22 07:56:45;;;;;;;6.65;1.60;;;20.60;99.90;;;;;;5038064;28;20052;-34
2023/08/22 07:59:12;;;;;;;5.43;1.60;;;20.70;99.90;;;;;;5064205;28;20041;-34
2023/08/22 08:01:38;;;;;;;5.20;1.63;;;20.80;99.90;;;;;;5058101;28;20109;-34
2023/08/22 08:04:04;;;;;;;4.70;1.40;;;20.90;99.90;;;;;;5049195;28;20510;-35
2023/08/22 08:06:33;;;;;;;5.22;2.03;;;21.00;99.90;;;;;;5058487;28;20053;-34
2023/08/22 08:09:00;;;;;;;5.18;1.50;;;21.10;99.90;;;;;;5051355;28;20076;-34
2023/08/22 08:11:29;;;;;;;3.10;1.48;;;21.20;99.90;;;;;;5062427;28;20056;-34
2023/08/22 08:13:55;;;;;;;3.75;1.40;;;21.20;99.90;;;;;;5046616;28;20045;-34
2023/08/22 08:16:21;;;;;;;3.38;1.98;;;21.20;99.90;;;;;;5061809;28;20131;-34
2023/08/22 08:18:47;;;;;;;6.10;1.77;;;21.20;99.90;;;;;;5057752;28;20119;-34
2023/08/22 08:21:12;;;;;;;5.05;1.50;;;21.20;99.90;;;;;;5046969;28;20056;-34
2023/08/22 08:23:38;;;;;;;4.28;1.88;;;21.20;99.90;;;;;;5057485;28;20372;-34
2023/08/22 08:26:05;;;;;;;3.20;1.92;;;21.30;99.90;;;;;;5046466;28;20045;-34
2023/08/22 08:28:31;;;;;;;3.88;2.17;;;21.30;99.90;;;;;;5051236;28;20102;-34
2023/08/22 08:30:57;;;;;;;4.45;2.00;;;21.30;99.90;;;;;;5037541;28;20067;-34
2023/08/22 08:33:22;;;;;;;5.43;2.67;;;21.30;99.90;;;;;;5032557;28;20060;-34
2023/08/22 08:35:48;;;;;;;5.32;2.58;;;21.40;99.90;;;;;;5041248;28;20498;-34
2023/08/22 08:38:14;;;;;;;4.85;2.60;;;21.30;99.90;;;;;;5064281;28;20422;-34
2023/08/22 08:40:42;;;;;;;5.70;2.55;;;21.30;99.90;;;;;;5052623;28;20036;-34
2023/08/22 08:43:08;;;;;;;5.50;2.80;;;21.40;99.90;;;;;;5050927;28;20049;-34
2023/08/22 08:45:34;;;;;;;5.97;2.83;;;21.40;99.90;;;;;;5061516;28;20101;-34
2023/08/22 08:48:02;;;;;;;5.30;2.65;;;21.40;99.90;;;;;;5059397;28;20044;-34
2023/08/22 08:50:30;;;;;;;4.28;2.03;;;21.40;99.90;;;;;;5063591;28;20048;-34
2023/08/22 08:52:56;;;;;;;4.60;2.20;;;21.50;99.90;;;;;;5078600;28;20055;-34
2023/08/22 08:55:22;;;;;;;5.22;2.03;;;21.50;99.90;;;;;;5042695;28;20406;-34
2023/08/22 08:57:47;;;;;;;3.25;1.73;;;21.50;99.90;;;;;;5045173;28;20045;-34
2023/08/22 09:00:17;;;;;;;5.93;2.20;;;21.60;99.90;;;;;;5057714;28;20056;-34
2023/08/22 09:02:44;;;;;;;3.38;1.48;;;21.60;99.90;;;;;;5062749;28;20067;-34
2023/08/22 09:05:10;;;;;;;2.70;1.25;;;21.70;99.90;;;;;;5059380;28;20078;-34
2023/08/22 09:07:37;;;;;;;5.75;1.75;;;21.70;99.90;;;;;;5060504;28;20072;-34
2023/08/22 09:10:04;;;;;;;4.15;1.55;;;21.60;99.90;;;;;;5062799;28;20490;-34
2023/08/22 09:12:36;;;;;;;3.22;1.20;;;21.50;99.90;;;;;;5062767;28;20421;-34
2023/08/22 09:15:06;;;;;;;3.38;1.23;;;21.50;99.90;;;;;;5045806;28;20372;-34
2023/08/22 09:17:32;;;;;;;5.43;1.58;;;21.40;99.90;;;;;;5056375;28;20056;-34
2023/08/22 09:19:58;;;;;;;3.17;1.00;;;21.30;99.90;;;;;;5066728;28;20052;-34
2023/08/22 09:22:30;;;;;;;3.92;1.20;;;21.40;99.90;;;;;;5064646;28;20098;-34
2023/08/22 09:24:56;;;;;;;;;;;21.40;99.90;;;;;;5054089;28;20503;-34
2023/08/22 09:27:26;;;;;;;3.72;1.10;;;21.50;99.90;;;;;;5038388;28;19920;-33
2023/08/22 09:29:53;;;;;;;2.67;1.00;;;21.70;99.90;;;;;;5048641;28;20055;-33
2023/08/22 09:32:21;;;;;;;2.63;1.10;;;22.00;99.90;;;;;;5058645;28;20048;-33
2023/08/22 09:34:55;;;;;;;4.90;1.30;;;22.20;99.90;;;;;;5056491;28;20143;-33
2023/08/22 09:37:34;;;;;;;6.78;1.58;;;22.50;99.90;;;;;;5057893;28;20745;-33
2023/08/22 09:40:00;;;;;;;5.20;1.17;;;22.70;99.90;;;;;;5046205;28;20525;-33
2023/08/22 09:42:29;;;;;;;3.50;0.95;;;22.90;99.90;;;;;;5061044;28;20118;-33
2023/08/22 09:44:58;;;;;;;4.00;1.08;;;23.20;99.90;;;;;;5058963;28;20543;-33
2023/08/22 09:47:31;;;;;;;2.95;1.05;;;23.30;99.90;;;;;;5061416;28;22373;-34
2023/08/22 09:50:00;;;;;;;6.30;0.95;;;23.40;99.90;;;;;;5064094;28;20052;-33
2023/08/22 09:52:26;;;;;;;4.05;1.27;;;23.30;99.90;;;;;;5043100;28;22024;-33
2023/08/22 09:54:52;;;;;;;3.15;0.93;;;23.30;99.90;;;;;;5061270;28;20044;-33
2023/08/22 09:57:19;;;;;;;1.80;0.70;;;23.40;99.90;;;;;;5051767;28;20072;-33
2023/08/22 09:59:48;;;;;;;2.45;0.68;;;23.60;99.90;;;;;;5043579;28;20068;-33
2023/08/22 10:02:16;;;;;;;2.35;0.60;;;23.80;99.90;;;;;;5059773;28;20148;-33
2023/08/22 10:04:42;;;;;;;3.70;0.93;;;24.00;99.90;;;;;;5063662;28;20067;-33
2023/08/22 10:07:08;;;;;;;1.58;0.40;;;24.20;99.90;;;;;;5064052;28;20139;-33
2023/08/22 10:09:34;;;;;;;2.38;0.47;;;24.20;99.90;;;;;;5051640;28;20497;-34
2023/08/22 10:12:04;;;;;;;1.08;0.40;;;24.20;99.90;;;;;;5064607;28;20060;-33
2023/08/22 10:14:33;;;;;;;2.15;0.60;;;24.10;99.90;;;;;;5054354;28;20060;-33
2023/08/22 10:16:59;;;;;;;3.10;0.70;;;23.90;99.90;;;;;;5059818;28;20083;-33
2023/08/22 10:19:26;;;;;;;2.75;1.05;;;23.80;99.90;;;;;;5062781;28;20052;-33
2023/08/22 10:21:54;;;;;;;2.83;0.70;;;23.80;99.90;;;;;;5059674;28;20048;-33
2023/08/22 10:24:26;;;;;;;2.70;0.63;;;23.80;99.90;;;;;;5052852;28;20045;-34
2023/08/22 10:27:12;;;;;;;4.47;0.80;;;23.90;99.90;;;;;;5050580;28;20044;-33
2023/08/22 10:29:46;;;;;;;2.10;0.70;;;24.00;99.90;;;;;;5058518;28;20055;-33
2023/08/22 10:32:11;;;;;;;1.85;0.75;;;24.20;99.90;;;;;;5060966;28;20080;-33
2023/08/22 10:34:40;;;;;;;3.30;0.77;;;24.30;99.90;;;;;;5054860;28;20092;-33
2023/08/22 10:37:18;;;;;;;3.60;0.70;;;24.40;99.90;;;;;;5063996;28;20122;-33
2023/08/22 10:39:45;;;;;;;3.95;0.80;;;24.50;99.90;;;;;;5063507;28;20406;-34
2023/08/22 10:42:23;;;;;;;1.63;0.80;;;24.50;99.90;;;;;;5055164;28;20146;-34
2023/08/22 10:44:49;;;;;;;3.83;0.95;;;24.50;99.90;;;;;;5064184;28;20063;-34
2023/08/22 10:47:19;;;;;;;4.05;1.33;;;24.40;99.90;;;;;;5054974;28;20060;-34
2023/08/22 10:50:10;;;;;;;2.25;0.85;;;24.40;99.90;;;;;;5063773;28;20052;-33
2023/08/22 10:52:38;;;;;;;2.28;0.98;;;24.40;99.90;;;;;;5065777;28;20063;-34
2023/08/22 10:55:12;;;;;;;2.78;1.00;;;24.20;99.90;;;;;;5065607;28;20151;-34
2023/08/22 10:57:45;;;;;;;4.25;1.10;;;24.20;99.90;;;;;;5053143;28;20053;-34
2023/08/22 11:00:22;;;;;;;3.28;1.00;;;24.40;99.90;;;;;;5058203;28;20069;-34
2023/08/22 11:02:53;;;;;;;3.45;1.00;;;24.50;99.90;;;;;;5059992;28;20561;-34
2023/08/22 11:05:19;;;;;;;2.10;0.95;;;24.60;99.90;;;;;;5050091;28;20561;-34
2023/08/22 11:07:46;;;;;;;2.85;0.90;;;24.60;99.90;;;;;;5052017;28;20139;-34
2023/08/22 11:10:16;;;;;;;3.45;1.10;;;24.80;99.90;;;;;;5054041;28;20135;-34
2023/08/22 11:12:45;;;;;;;3.22;1.40;;;24.80;99.90;;;;;;5064756;28;20044;-34
2023/08/22 11:15:14;;;;;;;4.03;1.65;;;24.70;99.90;;;;;;5067096;28;20056;-33
2023/08/22 11:17:40;;;;;;;4.70;1.30;;;24.70;99.90;;;;;;5049805;28;20092;-33
2023/08/22 11:20:11;;;;;;;5.75;1.17;;;24.80;99.90;;;;;;5059508;28;20061;-33
2023/08/22 11:22:37;;;;;;;6.57;1.52;;;24.90;99.90;;;;;;5061764;28;20088;-33
2023/08/22 11:25:04;;;;;;;3.22;1.33;;;25.10;99.90;;;;;;5050810;28;20137;-33
2023/08/22 11:27:30;;;;;;;2.58;1.45;;;25.20;99.90;;;;;;5041426;28;20056;-33
2023/08/22 11:29:55;;;;;;;4.32;1.30;;;25.30;99.90;;;;;;5063197;28;20406;-33
2023/08/22 11:32:22;;;;;;;2.92;1.70;;;25.30;99.90;;;;;;5064512;28;20055;-33
2023/08/22 11:34:52;;;;;;;6.50;1.90;;;25.40;99.90;;;;;;5053956;28;20062;-33
2023/08/22 11:37:19;;;;;;;4.65;2.20;;;25.50;99.90;;;;;;5050303;28;20049;-33
2023/08/22 11:39:52;;;;;;;5.10;1.90;;;25.60;99.90;;;;;;5053539;28;20155;-33
2023/08/22 11:42:20;;;;;;;6.97;2.20;;;25.70;99.90;;;;;;5060016;28;20040;-33
2023/08/22 11:44:57;;;;;;;5.82;2.15;;;25.70;99.90;;;;;;5064043;28;20594;-33
2023/08/22 11:47:23;;;;;;;4.85;1.85;;;25.80;99.90;;;;;;5053399;28;20048;-34
2023/08/22 11:49:49;;;;;;;5.85;2.78;;;25.80;99.90;;;;;;5062086;28;20052;-33
2023/08/22 11:52:16;;;;;;;6.05;2.58;;;26.00;99.90;;;;;;5063712;28;20106;-33
2023/08/22 11:54:45;;;;;;;6.60;2.85;;;26.10;99.90;;;;;;5054590;28;20103;-33
2023/08/22 11:57:14;;;;;;;5.05;2.72;;;26.10;99.90;;;;;;5047629;28;20069;-33
2023/08/22 11:59:42;;;;;;;5.43;2.92;;;26.20;99.90;;;;;;5060854;28;20063;-33
2023/08/22 12:02:11;;;;;;;6.45;2.17;;;26.30;99.90;;;;;;5037984;28;20185;-33
2023/08/22 12:04:43;;;;;;;5.40;1.52;;;26.50;99.90;;;;;;5056123;28;20081;-33
2023/08/22 12:07:09;;;;;;;5.03;1.80;;;26.50;99.90;;;;;;5049153;28;20116;-33
2023/08/22 12:09:35;;;;;;;3.85;1.38;;;26.40;99.90;;;;;;5060368;28;20517;-33
2023/08/22 12:12:14;;;;;;;3.22;1.38;;;26.30;99.90;;;;;;5048198;28;20114;-33
2023/08/22 12:14:40;;;;;;;4.75;1.50;;;26.20;99.90;;;;;;5053678;28;20490;-33
2023/08/22 12:17:06;;;;;;;12.60;1.60;;;26.20;99.90;;;;;;5057402;28;20056;-35
2023/08/22 12:19:32;;;;;;;3.30;1.70;;;26.20;99.90;;;;;;5042518;28;20514;-33
2023/08/22 12:21:59;;;;;;;4.40;1.30;;;26.40;99.90;;;;;;5063568;28;20056;-33
2023/08/22 12:24:26;;;;;;;5.30;1.33;;;26.40;99.90;;;;;;5065882;28;20052;-33
2023/08/22 12:26:52;;;;;;;3.60;1.67;;;26.50;99.90;;;;;;5051393;28;20055;-33
2023/08/22 12:29:18;;;;;;;4.40;1.13;;;26.70;99.90;;;;;;5061399;28;20110;-33
2023/08/22 12:31:43;;;;;;;3.05;1.40;;;26.70;99.90;;;;;;5047913;28;20597;-33
2023/08/22 12:34:09;;;;;;;4.55;2.20;;;26.70;99.90;;;;;;5056442;28;20487;-33
2023/08/22 12:36:35;;;;;;;3.20;1.75;;;26.70;99.90;;;;;;5049455;28;20569;-33
2023/08/22 12:39:00;;;;;;;4.43;1.40;;;26.70;99.90;;;;;;5063626;28;20060;-33
2023/08/22 12:41:26;;;;;;;5.28;1.65;;;26.80;99.90;;;;;;5061344;28;20105;-33
2023/08/22 12:43:52;;;;;;;4.18;2.00;;;26.90;99.90;;;;;;5059750;28;20052;-33
2023/08/22 12:46:17;;;;;;;3.88;2.28;;;27.00;99.90;;;;;;5062786;28;20494;-33